createdAt,value
2024-02-10T00:14:26.872Z,1109.05774
2024-02-10T00:29:28.931Z,692.37531
2024-02-10T00:44:30.941Z,334.96237
2024-02-10T00:59:32.958Z,120.33501
2024-02-10T01:14:35.088Z,11.67429
2024-02-10T01:29:37.070Z,0.89802
2024-02-10T01:44:39.123Z,0
2024-02-10T01:59:41.223Z,0
2024-02-10T02:14:43.223Z,0
2024-02-10T02:29:45.293Z,0
2024-02-10T02:44:47.394Z,0
2024-02-10T02:59:49.501Z,0
2024-02-10T03:14:51.677Z,0
2024-02-10T03:29:53.937Z,0
2024-02-10T03:44:56.615Z,0
2024-02-10T03:59:58.668Z,0
2024-02-10T04:15:00.742Z,0
2024-02-10T04:30:02.815Z,0
2024-02-10T04:45:04.867Z,0
2024-02-10T05:00:06.890Z,0
2024-02-10T05:15:08.876Z,0
2024-02-10T05:30:11.521Z,0
2024-02-10T05:45:13.728Z,0
2024-02-10T06:00:15.745Z,0
2024-02-10T06:15:18.038Z,0
2024-02-10T06:30:20.290Z,0
2024-02-10T06:45:22.450Z,0
2024-02-10T07:00:24.618Z,0
2024-02-10T07:15:26.916Z,0
2024-02-10T07:30:29.158Z,0
2024-02-10T07:45:32.510Z,0
2024-02-10T08:00:34.694Z,0
2024-02-10T08:15:36.747Z,0
2024-02-10T08:30:38.602Z,0
2024-02-10T08:45:40.690Z,0
2024-02-10T09:00:42.800Z,0
2024-02-10T09:15:44.791Z,0
2024-02-10T09:30:46.852Z,0
2024-02-10T09:45:48.861Z,0
2024-02-10T10:00:51.168Z,0
2024-02-10T10:15:53.348Z,0
2024-02-10T10:30:55.415Z,0
2024-02-10T10:45:57.593Z,0
2024-02-10T11:00:59.717Z,0
2024-02-10T11:16:01.959Z,0
2024-02-10T11:31:03.997Z,0
2024-02-10T11:46:05.988Z,0
2024-02-10T12:01:08.186Z,0
2024-02-10T12:16:10.373Z,0
2024-02-10T12:31:12.443Z,0
2024-02-10T12:46:14.658Z,0
2024-02-10T13:01:16.834Z,0
2024-02-10T13:16:19.140Z,0
2024-02-10T13:31:21.653Z,0
2024-02-10T13:46:24.046Z,0
2024-02-10T14:01:26.338Z,0
2024-02-10T14:16:29.256Z,0
2024-02-10T14:31:32.041Z,0.89802
2024-02-10T14:46:34.174Z,19.75649
2024-02-10T15:01:36.590Z,191.27879
2024-02-10T15:16:38.805Z,509.17874
2024-02-10T15:31:41.079Z,893.53235
2024-02-10T15:46:43.550Z,1967.56726
2024-02-10T16:01:45.858Z,6246.64453
2024-02-10T16:16:48.061Z,2194.76685
2024-02-10T16:31:50.250Z,2483.93018
2024-02-10T16:46:52.297Z,4947.20557
2024-02-10T17:01:54.520Z,3980.93359
2024-02-10T17:16:56.606Z,5727.5874
2024-02-10T17:31:58.801Z,4164.13037
2024-02-10T17:47:00.906Z,3919.86816
2024-02-10T18:02:03.039Z,4060.85767
2024-02-10T18:17:05.217Z,3741.16162
2024-02-10T18:32:07.350Z,3416.97559
2024-02-10T18:47:09.494Z,3363.09424
2024-02-10T19:02:11.718Z,3460.08057
2024-02-10T19:17:13.780Z,2800.93213
2024-02-10T19:32:15.979Z,4729.88428
2024-02-10T19:47:18.159Z,4676.90088
2024-02-10T20:02:20.650Z,4008.77222
2024-02-10T20:17:22.852Z,3813.00342
2024-02-10T20:32:25.089Z,4809.80859
2024-02-10T20:47:27.362Z,4622.12158
2024-02-10T21:02:29.360Z,5318.9873
2024-02-10T21:17:32.726Z,6063.44775
2024-02-10T21:32:34.828Z,5642.27539
2024-02-10T21:47:36.925Z,3805.81934
2024-02-10T22:02:38.960Z,2682.39307
2024-02-10T22:17:41.050Z,2526.13721
2024-02-10T22:32:43.141Z,2082.51416
2024-02-10T22:47:45.511Z,2446.21313
2024-02-10T23:02:47.699Z,2395.92407
2024-02-10T23:17:50.177Z,1617.3385
2024-02-10T23:32:52.409Z,1066.85071
2024-02-10T23:47:54.678Z,661.84259
